createdAt,value
2017-10-02T00:00:56.689Z,6.63
2017-10-02T00:03:24.962Z,8.03
2017-10-02T00:05:53.992Z,5.07
2017-10-02T00:08:22.262Z,6.33
2017-10-02T00:10:50.906Z,6.80
2017-10-02T00:13:19.590Z,7.23
2017-10-02T00:15:47.835Z,8.20
2017-10-02T00:18:16.114Z,8.30
2017-10-02T00:20:44.355Z,5.43
2017-10-02T00:23:13.334Z,4.53
2017-10-02T00:25:42.406Z,15.20
2017-10-02T00:28:10.613Z,4.43
2017-10-02T00:30:38.872Z,10.30
2017-10-02T00:33:07.910Z,7.10
2017-10-02T00:35:36.202Z,9.13
2017-10-02T00:38:04.495Z,6.60
2017-10-02T00:40:32.745Z,12.00
2017-10-02T00:43:01.033Z,5.27
2017-10-02T00:45:29.250Z,6.40
2017-10-02T00:47:58.262Z,20.67
2017-10-02T00:50:26.526Z,9.67
2017-10-02T00:52:54.843Z,7.90
2017-10-02T00:55:24.018Z,6.50
2017-10-02T00:57:52.295Z,7.77
2017-10-02T01:00:21.313Z,6.70
2017-10-02T01:02:49.917Z,7.10
2017-10-02T01:05:18.178Z,10.00
2017-10-02T01:07:46.411Z,4.83
2017-10-02T01:10:15.469Z,10.03
2017-10-02T01:12:43.742Z,7.63
2017-10-02T01:15:12.021Z,16.27
2017-10-02T01:17:40.281Z,7.97
2017-10-02T01:20:08.556Z,6.90
2017-10-02T01:22:36.805Z,10.73
2017-10-02T01:25:05.077Z,8.37
2017-10-02T01:27:33.306Z,4.73
2017-10-02T01:30:01.553Z,7.60
2017-10-02T01:32:29.823Z,12.13
2017-10-02T01:34:58.072Z,12.50
2017-10-02T01:37:27.104Z,6.47
2017-10-02T01:39:56.105Z,15.63
2017-10-02T01:42:24.346Z,10.73
2017-10-02T01:44:53.441Z,6.77
2017-10-02T01:47:22.470Z,9.50
2017-10-02T01:49:50.769Z,11.77
2017-10-02T01:52:19.070Z,10.40
2017-10-02T01:54:47.306Z,7.70
2017-10-02T01:57:15.582Z,10.33
2017-10-02T01:59:43.811Z,11.23
2017-10-02T02:02:12.055Z,9.73
2017-10-02T02:04:41.118Z,4.43
2017-10-02T02:07:09.386Z,5.77
2017-10-02T02:09:37.651Z,17.10
2017-10-02T02:12:06.669Z,13.30
2017-10-02T02:14:34.933Z,6.30
2017-10-02T02:17:03.221Z,6.10
2017-10-02T02:19:31.490Z,7.00
2017-10-02T02:22:01.085Z,10.80
2017-10-02T02:24:30.118Z,5.80
2017-10-02T02:26:58.384Z,4.47
2017-10-02T02:29:27.398Z,9.30
2017-10-02T02:31:55.638Z,20.63
2017-10-02T02:34:24.680Z,10.77
2017-10-02T02:36:52.907Z,9.13
2017-10-02T02:39:21.937Z,11.63
2017-10-02T02:41:50.170Z,4.13
2017-10-02T02:44:18.423Z,8.17
2017-10-02T02:46:46.713Z,8.03
2017-10-02T02:49:14.965Z,9.33
2017-10-02T02:51:43.221Z,5.00
2017-10-02T02:54:11.445Z,15.67
2017-10-02T02:56:39.718Z,4.53
2017-10-02T02:59:07.968Z,7.47
2017-10-02T03:01:36.247Z,7.67
2017-10-02T03:04:04.497Z,2.87
2017-10-02T03:06:32.760Z,4.83
2017-10-02T03:09:01.025Z,7.00
2017-10-02T03:11:29.306Z,6.10
2017-10-02T03:13:58.362Z,6.93
2017-10-02T03:16:26.587Z,7.37
2017-10-02T03:18:55.855Z,4.33
2017-10-02T03:21:24.146Z,10.07
2017-10-02T03:23:53.162Z,20.23
2017-10-02T03:26:21.426Z,9.07
2017-10-02T03:28:50.446Z,6.97
2017-10-02T03:31:19.551Z,4.93
2017-10-02T03:33:47.805Z,9.73
2017-10-02T03:36:16.824Z,13.90
2017-10-02T03:38:45.052Z,7.27
2017-10-02T03:41:13.337Z,13.83
2017-10-02T03:43:42.337Z,4.57
2017-10-02T03:46:10.695Z,9.20
2017-10-02T03:48:38.910Z,9.73
2017-10-02T03:51:07.203Z,8.20
2017-10-02T03:53:35.429Z,7.40
2017-10-02T03:56:04.426Z,4.97
2017-10-02T03:58:32.745Z,15.70
2017-10-02T04:01:00.980Z,4.30
2017-10-02T04:03:29.226Z,8.47
2017-10-02T04:05:57.461Z,6.40
2017-10-02T04:08:26.474Z,3.40
2017-10-02T04:10:54.729Z,12.43
2017-10-02T04:13:23.002Z,6.03
2017-10-02T04:15:52.026Z,23.27
2017-10-02T04:18:20.284Z,13.87
2017-10-02T04:20:48.529Z,9.23
2017-10-02T04:23:18.170Z,6.30
2017-10-02T04:25:46.431Z,6.10
2017-10-02T04:28:15.436Z,12.33
2017-10-02T04:30:44.450Z,8.10
2017-10-02T04:33:12.737Z,6.27
2017-10-02T04:35:41.068Z,11.40
2017-10-02T04:38:09.290Z,4.13
2017-10-02T04:40:37.535Z,10.70
2017-10-02T04:43:05.795Z,5.77
2017-10-02T04:45:34.028Z,9.03
2017-10-02T04:48:02.324Z,5.23
2017-10-02T04:50:30.587Z,15.23
2017-10-02T04:52:58.806Z,9.20
2017-10-02T04:55:27.866Z,9.43
2017-10-02T04:57:56.114Z,7.10
2017-10-02T05:00:24.351Z,7.63
2017-10-02T05:02:52.626Z,27.27
2017-10-02T05:05:21.659Z,7.50
2017-10-02T05:07:49.910Z,5.90
2017-10-02T05:10:18.991Z,4.97
2017-10-02T05:12:47.190Z,4.23
2017-10-02T05:15:15.466Z,5.37
2017-10-02T05:17:44.510Z,4.10
2017-10-02T05:20:12.902Z,3.90
2017-10-02T05:22:41.121Z,6.40
2017-10-02T05:25:10.157Z,10.00
2017-10-02T05:27:38.394Z,5.70
2017-10-02T05:30:06.646Z,4.13
2017-10-02T05:32:36.484Z,3.97
2017-10-02T05:35:05.485Z,6.73
2017-10-02T05:37:34.566Z,2.90
2017-10-02T05:40:02.817Z,13.73
2017-10-02T05:42:31.857Z,4.97
2017-10-02T05:45:00.090Z,3.70
2017-10-02T05:47:28.369Z,11.13
2017-10-02T05:49:56.617Z,11.93
2017-10-02T05:52:24.857Z,4.83
2017-10-02T05:54:53.135Z,5.97
2017-10-02T05:57:21.378Z,3.90
2017-10-02T05:59:49.627Z,4.50
2017-10-02T06:02:17.883Z,4.47
2017-10-02T06:04:46.125Z,10.20
2017-10-02T06:07:15.180Z,7.90
2017-10-02T06:09:43.456Z,4.80
2017-10-02T06:12:11.698Z,5.90
2017-10-02T06:14:39.987Z,4.57
2017-10-02T06:17:08.858Z,5.03
2017-10-02T06:19:37.882Z,5.53
2017-10-02T06:22:06.202Z,12.80
2017-10-02T06:24:34.580Z,4.03
2017-10-02T06:27:02.781Z,10.50
2017-10-02T06:29:30.998Z,4.10
2017-10-02T06:31:59.282Z,5.07
2017-10-02T06:34:27.486Z,5.20
2017-10-02T06:36:55.764Z,4.73
2017-10-02T06:39:24.003Z,3.40
2017-10-02T06:41:52.533Z,2.00
2017-10-02T06:44:21.552Z,1.83
2017-10-02T06:46:51.502Z,11.13
2017-10-02T06:49:19.814Z,2.13
2017-10-02T06:51:48.137Z,5.73
2017-10-02T06:54:17.135Z,3.40
2017-10-02T06:56:45.401Z,6.83
2017-10-02T06:59:13.652Z,7.23
2017-10-02T07:01:41.957Z,8.40
2017-10-02T07:04:10.734Z,2.00
2017-10-02T07:06:39.763Z,1.63
2017-10-02T07:09:08.004Z,1.73
2017-10-02T07:11:37.021Z,3.73
2017-10-02T07:14:05.289Z,2.30
2017-10-02T07:16:33.546Z,4.63
2017-10-02T07:19:01.829Z,1.50
2017-10-02T07:21:30.869Z,1.07
2017-10-02T07:23:59.487Z,1.90
2017-10-02T07:26:27.714Z,1.50
2017-10-02T07:28:56.022Z,5.77
2017-10-02T07:31:24.364Z,2.30
2017-10-02T07:33:52.692Z,5.30
2017-10-02T07:36:20.930Z,1.30
2017-10-02T07:38:49.183Z,1.80
2017-10-02T07:41:18.814Z,4.20
2017-10-02T07:43:47.066Z,1.90
2017-10-02T07:46:16.050Z,1.53
2017-10-02T07:48:45.081Z,5.33
2017-10-02T07:51:13.335Z,2.50
2017-10-02T07:53:43.139Z,2.43
2017-10-02T07:56:13.067Z,9.60
2017-10-02T07:58:41.378Z,1.63
2017-10-02T08:01:09.695Z,6.33
2017-10-02T08:03:38.973Z,1.67
2017-10-02T08:06:07.230Z,3.80
2017-10-02T08:08:35.634Z,12.87
2017-10-02T08:11:03.908Z,2.10
2017-10-02T08:13:32.178Z,3.83
2017-10-02T08:16:00.430Z,6.07
2017-10-02T08:18:28.692Z,2.43
2017-10-02T08:20:57.420Z,1.83
2017-10-02T08:23:25.653Z,3.17
2017-10-02T08:25:53.970Z,2.20
2017-10-02T08:28:22.248Z,2.70
2017-10-02T08:30:50.530Z,5.00
2017-10-02T08:33:18.761Z,3.73
2017-10-02T08:35:47.029Z,2.70
2017-10-02T08:38:16.062Z,2.80
2017-10-02T08:40:45.065Z,2.70
2017-10-02T08:43:13.507Z,10.30
2017-10-02T08:45:41.716Z,4.73
2017-10-02T08:48:09.968Z,5.13
2017-10-02T08:50:38.238Z,1.80
2017-10-02T08:53:07.354Z,4.40
2017-10-02T08:55:35.612Z,1.93
2017-10-02T08:58:04.611Z,3.20
2017-10-02T09:00:32.914Z,3.53
2017-10-02T09:03:01.193Z,8.93
2017-10-02T09:05:29.419Z,3.83
2017-10-02T09:07:58.457Z,2.03
2017-10-02T09:10:26.714Z,3.07
2017-10-02T09:12:55.270Z,6.77
2017-10-02T09:15:23.550Z,4.33
2017-10-02T09:17:51.875Z,5.27
2017-10-02T09:20:20.113Z,2.37
2017-10-02T09:22:49.115Z,6.90
2017-10-02T09:25:18.151Z,5.63
2017-10-02T09:27:47.164Z,3.03
2017-10-02T09:30:15.394Z,5.00
2017-10-02T09:32:43.667Z,5.80
2017-10-02T09:35:12.659Z,10.07
2017-10-02T09:37:40.935Z,6.50
2017-10-02T09:40:09.974Z,5.10
2017-10-02T09:42:38.260Z,3.70
2017-10-02T09:45:06.534Z,4.60
2017-10-02T09:47:36.204Z,3.27
2017-10-02T09:50:04.493Z,8.93
2017-10-02T09:52:32.815Z,6.70
2017-10-02T09:55:01.073Z,9.77
2017-10-02T09:57:30.297Z,9.00
2017-10-02T09:59:58.537Z,7.57
2017-10-02T10:02:26.791Z,5.13
2017-10-02T10:04:55.807Z,12.83
2017-10-02T10:07:24.062Z,3.50
2017-10-02T10:09:52.374Z,8.13
2017-10-02T10:12:20.608Z,7.30
2017-10-02T10:14:49.811Z,5.73
2017-10-02T10:17:18.067Z,5.40
2017-10-02T10:19:47.071Z,3.43
2017-10-02T10:22:16.129Z,4.67
2017-10-02T10:24:44.839Z,9.87
2017-10-02T10:27:14.585Z,4.80
2017-10-02T10:29:42.920Z,4.17
2017-10-02T10:32:11.166Z,6.27
2017-10-02T10:34:40.324Z,8.17
2017-10-02T10:37:09.374Z,4.40
2017-10-02T10:39:37.672Z,10.30
2017-10-02T10:42:05.916Z,4.50
2017-10-02T10:44:34.237Z,4.27
2017-10-02T10:47:02.514Z,9.43
2017-10-02T10:49:30.761Z,4.53
2017-10-02T10:51:59.043Z,4.57
2017-10-02T10:54:27.335Z,12.10
2017-10-02T10:56:55.578Z,4.07
2017-10-02T10:59:23.915Z,4.43
2017-10-02T11:01:52.933Z,5.73
2017-10-02T11:04:21.235Z,4.10
2017-10-02T11:06:49.469Z,6.07
2017-10-02T11:09:18.476Z,11.87
2017-10-02T11:11:46.770Z,4.73
2017-10-02T11:14:15.012Z,12.40
2017-10-02T11:16:44.074Z,7.27
2017-10-02T11:19:12.339Z,153.07
2017-10-02T11:21:40.616Z,6.77
2017-10-02T11:24:08.903Z,6.20
2017-10-02T11:26:37.150Z,6.43
2017-10-02T11:29:05.465Z,8.27
2017-10-02T11:31:33.723Z,7.70
2017-10-02T11:34:01.975Z,7.90
2017-10-02T11:36:30.266Z,8.67
2017-10-02T11:38:58.511Z,7.37
2017-10-02T11:41:27.548Z,6.80
2017-10-02T11:43:55.850Z,8.13
2017-10-02T11:46:24.188Z,7.63
2017-10-02T11:48:52.493Z,9.20
2017-10-02T11:51:20.695Z,8.30
2017-10-02T11:53:49.707Z,9.27
2017-10-02T11:56:18.713Z,16.20
2017-10-02T11:58:46.975Z,22.30
2017-10-02T12:01:15.268Z,15.07
2017-10-02T12:03:44.390Z,12.13
2017-10-02T12:06:12.657Z,22.40
2017-10-02T12:08:40.929Z,15.27
2017-10-02T12:11:10.008Z,12.10
2017-10-02T12:13:39.381Z,20.50
2017-10-02T12:16:07.654Z,16.70
2017-10-02T12:18:35.934Z,13.60
2017-10-02T12:21:04.275Z,20.60
2017-10-02T12:23:32.516Z,15.67
2017-10-02T12:26:00.827Z,22.43
2017-10-02T12:28:29.088Z,18.30
2017-10-02T12:30:57.354Z,22.87
2017-10-02T12:33:25.758Z,20.80
2017-10-02T12:35:54.050Z,40.90
2017-10-02T12:38:22.321Z,21.80
2017-10-02T12:40:50.585Z,20.40
2017-10-02T12:43:18.911Z,23.13
2017-10-02T12:45:47.164Z,29.63
2017-10-02T12:48:16.097Z,20.83
2017-10-02T12:50:46.018Z,18.47
2017-10-02T12:53:14.304Z,23.23
2017-10-02T12:55:43.437Z,20.23
2017-10-02T12:58:11.899Z,39.43
2017-10-02T13:00:40.935Z,14.83
2017-10-02T13:03:09.192Z,18.83
2017-10-02T13:05:37.515Z,23.30
2017-10-02T13:08:06.325Z,29.37
2017-10-02T13:10:34.615Z,28.60
2017-10-02T13:13:02.897Z,28.07
2017-10-02T13:15:31.173Z,25.33
2017-10-02T13:18:00.175Z,21.77
2017-10-02T13:20:28.462Z,25.70
2017-10-02T13:22:56.712Z,20.03
2017-10-02T13:25:25.035Z,17.73
2017-10-02T13:27:53.439Z,58.63
2017-10-02T13:30:21.696Z,32.93
2017-10-02T13:32:50.764Z,28.13
2017-10-02T13:35:19.056Z,34.17
2017-10-02T13:37:47.339Z,51.40
2017-10-02T13:40:15.594Z,19.80
2017-10-02T13:42:43.901Z,27.60
2017-10-02T13:45:12.131Z,28.60
2017-10-02T13:47:40.395Z,18.40
2017-10-02T13:50:09.408Z,19.87
2017-10-02T13:52:37.695Z,27.80
2017-10-02T13:55:06.018Z,25.70
2017-10-02T13:57:34.322Z,22.00
2017-10-02T14:00:03.376Z,28.63
2017-10-02T14:02:32.436Z,28.90
2017-10-02T14:05:00.793Z,17.30
2017-10-02T14:07:29.822Z,29.40
2017-10-02T14:09:58.126Z,19.93
2017-10-02T14:12:26.386Z,23.57
2017-10-02T14:14:54.657Z,30.57
2017-10-02T14:17:22.972Z,33.10
2017-10-02T14:19:51.303Z,24.17
2017-10-02T14:22:19.585Z,44.47
2017-10-02T14:24:47.854Z,40.13
2017-10-02T14:27:16.125Z,34.27
2017-10-02T14:29:45.164Z,45.67
2017-10-02T14:32:13.431Z,33.60
2017-10-02T14:34:41.700Z,34.73
2017-10-02T14:37:09.969Z,24.57
2017-10-02T14:39:38.310Z,30.60
2017-10-02T14:42:07.521Z,21.60
2017-10-02T14:44:35.791Z,23.20
2017-10-02T14:47:04.069Z,27.23
2017-10-02T14:49:32.328Z,20.90
2017-10-02T14:52:00.616Z,32.17
2017-10-02T14:54:38.886Z,35.87
2017-10-02T14:57:07.158Z,36.70
2017-10-02T14:59:36.207Z,26.03
2017-10-02T15:02:05.275Z,37.70
2017-10-02T15:04:34.188Z,40.27
2017-10-02T15:07:02.464Z,26.80
2017-10-02T15:09:30.771Z,37.93
2017-10-02T15:11:59.150Z,23.63
2017-10-02T15:14:27.422Z,41.50
2017-10-02T15:16:55.784Z,38.80
2017-10-02T15:19:24.108Z,43.17
2017-10-02T15:21:53.188Z,30.20
2017-10-02T15:24:22.203Z,24.67
2017-10-02T15:26:50.669Z,24.57
2017-10-02T15:29:18.943Z,42.67
2017-10-02T15:31:47.249Z,37.37
2017-10-02T15:34:16.281Z,28.20
2017-10-02T15:36:44.829Z,34.93
2017-10-02T15:39:13.062Z,28.53
2017-10-02T15:41:41.334Z,25.47
2017-10-02T15:44:09.588Z,27.53
2017-10-02T15:46:37.878Z,22.67
2017-10-02T15:49:06.150Z,30.47
2017-10-02T15:51:34.414Z,27.17
2017-10-02T15:54:02.733Z,28.17
2017-10-02T15:56:31.005Z,40.47
2017-10-02T15:59:02.387Z,37.87
2017-10-02T16:01:30.636Z,33.87
2017-10-02T16:03:58.899Z,29.97
2017-10-02T16:06:28.035Z,21.30
2017-10-02T16:08:56.307Z,30.23
2017-10-02T16:11:24.627Z,36.37
2017-10-02T16:13:53.448Z,37.23
2017-10-02T16:16:22.500Z,41.77
2017-10-02T16:18:50.782Z,37.63
2017-10-02T16:21:19.014Z,40.13
2017-10-02T16:23:48.048Z,38.90
2017-10-02T16:26:16.345Z,39.43
2017-10-02T16:28:44.618Z,48.97
2017-10-02T16:31:13.063Z,28.97
2017-10-02T16:33:41.446Z,31.27
2017-10-02T16:36:10.609Z,25.83
2017-10-02T16:38:38.925Z,30.27
2017-10-02T16:41:07.228Z,37.30
2017-10-02T16:43:35.594Z,28.33
2017-10-02T16:46:03.972Z,31.70
2017-10-02T16:48:32.247Z,52.73
2017-10-02T16:51:00.575Z,33.10
2017-10-02T16:53:29.611Z,30.17
2017-10-02T16:55:57.890Z,53.37
2017-10-02T16:58:26.198Z,43.80
2017-10-02T17:00:54.866Z,35.73
2017-10-02T17:03:23.150Z,36.67
2017-10-02T17:05:51.406Z,25.90
2017-10-02T17:08:20.068Z,24.70
2017-10-02T17:10:48.389Z,42.00
2017-10-02T17:13:16.660Z,26.83
2017-10-02T17:15:44.933Z,36.43
2017-10-02T17:18:13.206Z,41.43
2017-10-02T17:20:41.499Z,45.63
2017-10-02T17:23:09.756Z,22.00
2017-10-02T17:25:38.060Z,55.30
2017-10-02T17:28:06.278Z,35.97
2017-10-02T17:30:34.563Z,24.13
2017-10-02T17:33:02.832Z,32.80
2017-10-02T17:35:31.070Z,35.77
2017-10-02T17:37:59.344Z,37.60
2017-10-02T17:40:27.754Z,27.33
2017-10-02T17:42:57.523Z,35.17
2017-10-02T17:45:25.901Z,35.73
2017-10-02T17:47:54.246Z,41.37
2017-10-02T17:50:22.509Z,30.80
2017-10-02T17:52:50.798Z,42.00
2017-10-02T17:55:19.831Z,38.47
2017-10-02T17:57:48.111Z,42.50
2017-10-02T18:00:16.363Z,37.77
2017-10-02T18:02:44.663Z,59.03
2017-10-02T18:05:12.954Z,51.27
2017-10-02T18:07:41.276Z,32.27
2017-10-02T18:10:09.632Z,36.10
2017-10-02T18:12:38.844Z,42.87
2017-10-02T18:15:07.873Z,43.73
2017-10-02T18:17:36.303Z,33.07
2017-10-02T18:20:04.619Z,34.03
2017-10-02T18:22:34.558Z,39.03
2017-10-02T18:25:02.854Z,43.67
2017-10-02T18:27:31.164Z,40.10
2017-10-02T18:30:00.266Z,33.43
2017-10-02T18:32:28.569Z,37.37
2017-10-02T18:34:56.857Z,60.17
2017-10-02T18:37:25.162Z,31.17
2017-10-02T18:39:53.452Z,34.03
2017-10-02T18:42:21.897Z,41.83
2017-10-02T18:44:50.245Z,35.70
2017-10-02T18:47:19.534Z,49.47
2017-10-02T18:49:48.753Z,45.13
2017-10-02T18:52:17.426Z,40.60
2017-10-02T18:54:45.700Z,58.57
2017-10-02T18:57:16.329Z,39.10
2017-10-02T18:59:45.010Z,37.37
2017-10-02T19:02:14.169Z,46.77
2017-10-02T19:04:43.358Z,44.70
2017-10-02T19:07:11.645Z,53.77
2017-10-02T19:09:39.985Z,39.50
2017-10-02T19:12:08.348Z,42.43
2017-10-02T19:14:36.608Z,39.40
2017-10-02T19:17:04.868Z,54.53
2017-10-02T19:19:33.393Z,31.27
2017-10-02T19:22:01.668Z,38.40
2017-10-02T19:24:30.263Z,40.17
2017-10-02T19:26:59.283Z,39.07
2017-10-02T19:29:27.584Z,31.37
2017-10-02T19:31:55.884Z,37.07
2017-10-02T19:34:24.179Z,40.20
2017-10-02T19:36:53.549Z,56.80
2017-10-02T19:39:21.851Z,36.87
2017-10-02T19:41:50.894Z,44.53
2017-10-02T19:44:19.191Z,25.00
2017-10-02T19:46:47.444Z,45.40
2017-10-02T19:49:16.590Z,45.27
2017-10-02T19:51:44.856Z,42.80
2017-10-02T19:54:13.158Z,43.07
2017-10-02T19:56:41.467Z,40.63
2017-10-02T19:59:10.468Z,47.60
2017-10-02T20:01:38.949Z,36.60
2017-10-02T20:04:07.260Z,50.00
2017-10-02T20:06:35.592Z,42.20
2017-10-02T20:09:04.048Z,31.33
2017-10-02T20:11:32.312Z,64.13
2017-10-02T20:14:00.643Z,54.80
2017-10-02T20:16:28.909Z,46.33
2017-10-02T20:18:57.232Z,44.40
2017-10-02T20:21:25.521Z,56.10
2017-10-02T20:23:53.827Z,41.97
2017-10-02T20:26:22.864Z,41.83
2017-10-02T20:28:51.150Z,39.70
2017-10-02T20:31:19.392Z,56.07
2017-10-02T20:33:48.583Z,40.50
2017-10-02T20:36:16.845Z,35.17
2017-10-02T20:38:45.134Z,54.00
2017-10-02T20:41:14.191Z,40.70
2017-10-02T20:43:42.463Z,39.27
2017-10-02T20:46:10.765Z,44.63
2017-10-02T20:48:39.005Z,36.27
2017-10-02T20:51:07.338Z,61.17
2017-10-02T20:53:36.402Z,36.00
2017-10-02T20:56:04.727Z,58.50
2017-10-02T20:58:32.995Z,36.57
2017-10-02T21:01:01.272Z,38.07
2017-10-02T21:03:30.345Z,31.97
2017-10-02T21:05:58.622Z,40.50
2017-10-02T21:08:27.733Z,41.00
2017-10-02T21:10:55.992Z,39.17
2017-10-02T21:13:24.285Z,48.57
2017-10-02T21:15:52.529Z,46.97
2017-10-02T21:18:20.842Z,33.87
2017-10-02T21:20:49.148Z,57.03
2017-10-02T21:23:17.429Z,43.03
2017-10-02T21:25:45.732Z,34.00
2017-10-02T21:28:14.326Z,58.37
2017-10-02T21:30:42.651Z,39.50
2017-10-02T21:33:11.641Z,47.63
2017-10-02T21:35:40.649Z,45.37
2017-10-02T21:38:08.917Z,53.67
2017-10-02T21:40:37.939Z,57.23
2017-10-02T21:43:06.205Z,46.67
2017-10-02T21:45:34.457Z,62.27
2017-10-02T21:48:03.948Z,41.73
2017-10-02T21:50:32.178Z,56.97
2017-10-02T21:53:00.432Z,56.40
2017-10-02T21:55:29.808Z,44.50
2017-10-02T21:57:58.051Z,48.63
2017-10-02T22:00:26.352Z,54.27
2017-10-02T22:02:54.603Z,53.67
2017-10-02T22:05:22.941Z,54.77
2017-10-02T22:07:51.231Z,44.87
2017-10-02T22:10:19.480Z,52.33
2017-10-02T22:12:48.479Z,39.43
2017-10-02T22:15:17.505Z,41.60
2017-10-02T22:17:45.767Z,41.43
2017-10-02T22:20:15.144Z,30.13
2017-10-02T22:22:43.427Z,28.70
2017-10-02T22:25:11.698Z,47.20
2017-10-02T22:27:39.962Z,33.10
2017-10-02T22:30:09.034Z,30.60
2017-10-02T22:32:37.462Z,24.67
2017-10-02T22:35:05.678Z,44.87
2017-10-02T22:37:33.937Z,32.70
2017-10-02T22:40:02.228Z,43.43
2017-10-02T22:42:30.455Z,50.07
2017-10-02T22:44:58.720Z,31.97
2017-10-02T22:47:27.580Z,36.33
2017-10-02T22:49:55.865Z,52.30
2017-10-02T22:52:24.132Z,44.33
2017-10-02T22:54:52.450Z,34.07
2017-10-02T22:57:20.791Z,50.93
2017-10-02T22:59:49.077Z,38.10
2017-10-02T23:02:17.356Z,39.50
2017-10-02T23:04:45.635Z,46.97
2017-10-02T23:07:13.928Z,39.57
2017-10-02T23:09:43.086Z,35.40
2017-10-02T23:12:11.466Z,37.63
2017-10-02T23:14:39.758Z,32.57
2017-10-02T23:17:08.034Z,34.17
2017-10-02T23:19:36.619Z,34.17
2017-10-02T23:22:04.867Z,27.87
2017-10-02T23:24:33.144Z,33.73
2017-10-02T23:27:01.410Z,37.47
2017-10-02T23:29:30.443Z,47.37
2017-10-02T23:31:58.679Z,32.80
2017-10-02T23:34:27.720Z,41.67
2017-10-02T23:36:55.989Z,53.27
2017-10-02T23:39:24.268Z,45.87
2017-10-02T23:41:52.491Z,43.33
2017-10-02T23:44:20.752Z,49.40
2017-10-02T23:46:49.026Z,58.37
2017-10-02T23:49:17.278Z,45.77
2017-10-02T23:51:46.279Z,49.20
2017-10-02T23:54:14.551Z,42.20
2017-10-02T23:56:42.818Z,36.63
2017-10-02T23:59:11.054Z,37.73
